Time;durP1;ratioP1;P1;durP2;ratioP2;P2;SDS_P1;SDS_P2;PMS_P1;PMS_P2;Temp;Humidity;BMP_temperature;BMP_pressure;BME280_temperature;BME280_humidity;BME280_pressure;Samples;Min_cycle;Max_cycle;Signal;HPM_P1;HPM_P2
2023/07/21 00:00:29;;;;;;;1.75;0.93;;;15.20;99.90;;;;;;4920021;29;20070;-65
2023/07/21 00:02:55;;;;;;;1.67;1.00;;;15.20;99.90;;;;;;4926122;29;20040;-65
2023/07/21 00:05:24;;;;;;;1.13;0.88;;;15.30;99.90;;;;;;4910401;29;20062;-66
2023/07/21 00:07:50;;;;;;;1.55;0.82;;;15.30;99.90;;;;;;4921674;29;20036;-65
2023/07/21 00:10:16;;;;;;;4.25;1.25;;;15.20;99.90;;;;;;4923268;29;20028;-65
2023/07/21 00:12:48;;;;;;;1.13;0.95;;;15.30;99.90;;;;;;4919130;29;20025;-65
2023/07/21 00:15:17;;;;;;;2.63;1.17;;;15.30;99.90;;;;;;4917307;29;20042;-65
2023/07/21 00:17:44;;;;;;;1.25;1.00;;;15.20;99.90;;;;;;4920884;29;20587;-65
2023/07/21 00:20:12;;;;;;;1.73;1.05;;;15.10;99.90;;;;;;4926253;29;20043;-65
2023/07/21 00:22:41;;;;;;;2.30;1.00;;;15.10;99.90;;;;;;4923983;29;20773;-65
2023/07/21 00:25:11;;;;;;;1.10;1.00;;;15.00;99.90;;;;;;4924498;29;20038;-65
2023/07/21 00:27:42;;;;;;;3.35;1.20;;;14.90;99.90;;;;;;4921179;29;20496;-65
2023/07/21 00:30:09;;;;;;;0.93;0.90;;;14.90;99.90;;;;;;4909418;29;20050;-65
2023/07/21 00:32:35;;;;;;;1.33;1.10;;;14.90;99.90;;;;;;4899267;29;20032;-65
2023/07/21 00:35:04;;;;;;;1.02;0.93;;;14.90;99.90;;;;;;4919508;29;20032;-65
2023/07/21 00:37:30;;;;;;;1.00;0.90;;;14.90;99.90;;;;;;4910206;29;20045;-65
2023/07/21 00:39:56;;;;;;;1.52;1.20;;;14.80;99.90;;;;;;4925083;29;20036;-65
2023/07/21 00:42:22;;;;;;;2.15;0.90;;;14.80;99.90;;;;;;4907005;29;20519;-65
2023/07/21 00:44:48;;;;;;;1.10;0.88;;;14.80;99.90;;;;;;4921109;29;20036;-65
2023/07/21 00:47:14;;;;;;;1.80;1.00;;;14.70;99.90;;;;;;4922133;29;20031;-65
2023/07/21 00:49:43;;;;;;;1.35;1.10;;;14.80;99.90;;;;;;4907143;29;20063;-65
2023/07/21 00:52:10;;;;;;;2.30;1.00;;;14.70;99.90;;;;;;4919499;29;20032;-65
2023/07/21 00:54:36;;;;;;;1.00;0.70;;;14.60;99.90;;;;;;4902354;29;20046;-65
2023/07/21 00:57:02;;;;;;;1.60;0.90;;;14.60;99.90;;;;;;4922049;29;20032;-65
2023/07/21 00:59:29;;;;;;;1.13;0.88;;;14.50;99.90;;;;;;4905830;29;20595;-65
2023/07/21 01:01:56;;;;;;;0.93;0.85;;;14.50;99.90;;;;;;4920961;29;20161;-65
2023/07/21 01:04:23;;;;;;;1.60;0.90;;;14.40;99.90;;;;;;4906551;29;20155;-64
2023/07/21 01:06:49;;;;;;;2.00;1.20;;;14.40;99.90;;;;;;4921865;29;20036;-65
2023/07/21 01:09:19;;;;;;;3.08;1.10;;;14.40;99.90;;;;;;4919266;29;20515;-65
2023/07/21 01:11:46;;;;;;;1.00;0.75;;;14.50;99.90;;;;;;4920546;29;20035;-65
2023/07/21 01:14:12;;;;;;;1.25;1.10;;;14.50;99.90;;;;;;4909845;29;20040;-65
2023/07/21 01:16:43;;;;;;;1.50;1.20;;;14.50;99.90;;;;;;4906043;29;20039;-65
2023/07/21 01:19:13;;;;;;;1.40;1.10;;;14.50;99.90;;;;;;4923392;29;20035;-65
2023/07/21 01:21:58;;;;;;;1.67;0.88;;;14.50;99.90;;;;;;4918472;29;20051;-65
2023/07/21 01:24:27;;;;;;;1.30;1.00;;;14.40;99.90;;;;;;4918932;29;20039;-65
2023/07/21 01:26:55;;;;;;;1.05;0.90;;;14.30;99.90;;;;;;4902291;29;20098;-65
2023/07/21 01:29:23;;;;;;;1.95;1.42;;;14.30;99.90;;;;;;4909738;29;20043;-65
2023/07/21 01:31:50;;;;;;;2.40;0.93;;;14.20;99.90;;;;;;4924941;29;20153;-65
2023/07/21 01:34:16;;;;;;;2.40;1.30;;;14.20;99.90;;;;;;4909687;29;20036;-65
2023/07/21 01:36:43;;;;;;;1.30;1.00;;;14.20;99.90;;;;;;4905679;29;20047;-65
2023/07/21 01:39:10;;;;;;;2.50;1.17;;;14.20;99.90;;;;;;4909530;29;20040;-65
2023/07/21 01:41:37;;;;;;;2.42;1.25;;;14.20;99.90;;;;;;4918778;29;20047;-65
2023/07/21 01:44:03;;;;;;;3.15;1.05;;;14.20;99.90;;;;;;4908698;29;20036;-65
2023/07/21 01:46:29;;;;;;;2.17;1.20;;;14.20;99.90;;;;;;4901924;29;20039;-65
2023/07/21 01:48:55;;;;;;;1.40;0.95;;;14.20;99.90;;;;;;4901216;29;20396;-65
2023/07/21 01:51:23;;;;;;;1.52;0.95;;;14.20;99.90;;;;;;4924736;29;20028;-65
2023/07/21 01:53:54;;;;;;;0.95;0.88;;;14.10;99.90;;;;;;4904644;29;20043;-65
2023/07/21 01:56:37;;;;;;;4.75;1.20;;;14.10;99.90;;;;;;4919496;29;20036;-64
2023/07/21 01:59:07;;;;;;;1.60;1.27;;;14.10;99.90;;;;;;4908054;29;20099;-65
2023/07/21 02:01:35;;;;;;;2.75;1.17;;;14.10;99.90;;;;;;4917416;29;20096;-65
2023/07/21 02:04:01;;;;;;;2.13;1.00;;;14.10;99.90;;;;;;4909228;29;20035;-65
2023/07/21 02:06:27;;;;;;;1.60;0.88;;;14.10;99.90;;;;;;4909504;29;20099;-65
2023/07/21 02:08:52;;;;;;;1.30;1.17;;;14.20;99.90;;;;;;4899855;29;20028;-65
2023/07/21 02:11:20;;;;;;;2.20;1.10;;;14.20;99.90;;;;;;4920980;29;20038;-65
2023/07/21 02:14:08;;;;;;;1.10;1.00;;;14.30;99.90;;;;;;4921465;29;20031;-65
2023/07/21 02:16:34;;;;;;;2.03;1.20;;;14.30;99.90;;;;;;4906407;29;20032;-65
2023/07/21 02:19:00;;;;;;;3.95;1.25;;;14.30;99.90;;;;;;4926367;29;20035;-64
2023/07/21 02:21:26;;;;;;;2.00;1.13;;;14.30;99.90;;;;;;4912637;29;20063;-65
2023/07/21 02:23:51;;;;;;;3.22;1.10;;;14.30;99.90;;;;;;4926803;29;20404;-65
2023/07/21 02:26:17;;;;;;;3.28;0.98;;;14.30;99.90;;;;;;4912561;29;20074;-65
2023/07/21 02:28:43;;;;;;;1.15;1.05;;;14.20;99.90;;;;;;4907751;29;20024;-65
2023/07/21 02:31:09;;;;;;;1.35;1.08;;;14.20;99.90;;;;;;4912408;29;20031;-65
2023/07/21 02:33:35;;;;;;;1.52;1.13;;;14.10;99.90;;;;;;4922057;29;20032;-65
2023/07/21 02:36:03;;;;;;;1.40;1.30;;;14.10;99.90;;;;;;4921765;29;20070;-65
2023/07/21 02:38:29;;;;;;;2.28;1.13;;;14.00;99.90;;;;;;4921065;29;20035;-65
2023/07/21 02:41:01;;;;;;;1.42;1.33;;;14.00;99.90;;;;;;4928743;29;20401;-65
2023/07/21 02:43:27;;;;;;;1.73;1.05;;;14.00;99.90;;;;;;4912392;29;20729;-65
2023/07/21 02:45:54;;;;;;;1.65;1.00;;;14.00;99.90;;;;;;4903010;29;20046;-65
2023/07/21 02:48:20;;;;;;;2.17;1.20;;;13.90;99.90;;;;;;4908294;29;20032;-65
2023/07/21 02:50:56;;;;;;;2.45;1.08;;;13.90;99.90;;;;;;4922437;29;20055;-65
2023/07/21 02:53:23;;;;;;;2.80;1.10;;;13.90;99.90;;;;;;4904593;29;20032;-65
2023/07/21 02:55:57;;;;;;;2.28;1.20;;;13.90;99.90;;;;;;4903332;29;20036;-65
2023/07/21 02:58:26;;;;;;;3.08;1.40;;;13.90;99.90;;;;;;4908516;29;20036;-64
2023/07/21 03:00:56;;;;;;;1.63;1.10;;;13.90;99.90;;;;;;4909737;29;20040;-64
2023/07/21 03:03:32;;;;;;;3.40;1.30;;;13.90;99.90;;;;;;4904636;29;20078;-65
2023/07/21 03:06:06;;;;;;;3.92;1.00;;;13.90;99.90;;;;;;4911722;29;20051;-65
2023/07/21 03:08:33;;;;;;;3.17;1.05;;;13.80;99.90;;;;;;4909542;29;20038;-64
2023/07/21 03:11:05;;;;;;;2.00;1.02;;;13.70;99.90;;;;;;4905529;29;20028;-64
2023/07/21 03:13:35;;;;;;;1.10;1.00;;;13.70;99.90;;;;;;4916291;29;20038;-65
2023/07/21 03:16:02;;;;;;;1.70;1.10;;;13.60;99.90;;;;;;4906204;29;20024;-64
2023/07/21 03:18:31;;;;;;;2.95;1.35;;;13.70;99.90;;;;;;4907500;29;20043;-65
2023/07/21 03:21:13;;;;;;;1.15;1.02;;;13.70;99.90;;;;;;4904267;29;20124;-64
2023/07/21 03:23:39;;;;;;;1.88;0.80;;;13.70;99.90;;;;;;4909098;29;20071;-65
2023/07/21 03:26:05;;;;;;;1.70;1.08;;;13.70;99.90;;;;;;4910896;29;20508;-65
2023/07/21 03:28:38;;;;;;;1.48;1.05;;;13.70;99.90;;;;;;4902864;29;20062;-65
2023/07/21 03:31:04;;;;;;;1.25;1.00;;;13.70;99.90;;;;;;4900585;29;20028;-64
2023/07/21 03:33:39;;;;;;;3.25;1.17;;;13.80;99.90;;;;;;4906845;29;20066;-65
2023/07/21 03:36:11;;;;;;;1.23;1.02;;;13.80;99.90;;;;;;4911269;29;20042;-65
2023/07/21 03:38:36;;;;;;;1.95;1.15;;;13.80;99.90;;;;;;4902438;29;20059;-64
2023/07/21 03:41:03;;;;;;;1.30;0.95;;;13.80;99.90;;;;;;4908874;29;20032;-64
2023/07/21 03:43:32;;;;;;;2.72;1.10;;;13.70;99.90;;;;;;4907594;29;20751;-64
2023/07/21 03:46:00;;;;;;;3.78;1.20;;;13.70;99.90;;;;;;4891253;29;20032;-64
2023/07/21 03:48:31;;;;;;;2.05;1.30;;;13.70;99.90;;;;;;4902649;29;20092;-65
2023/07/21 03:51:03;;;;;;;2.10;1.42;;;13.60;99.90;;;;;;4909916;29;20122;-64
2023/07/21 03:53:32;;;;;;;2.13;1.60;;;13.60;99.90;;;;;;4903327;29;20036;-65
2023/07/21 03:55:58;;;;;;;1.83;1.40;;;13.50;99.90;;;;;;4925954;29;20031;-64
2023/07/21 03:58:26;;;;;;;2.42;1.40;;;13.50;99.90;;;;;;4911216;29;20031;-64
2023/07/21 04:00:52;;;;;;;3.53;1.27;;;13.50;99.90;;;;;;4920633;29;20036;-64
2023/07/21 04:03:18;;;;;;;2.08;1.38;;;13.50;99.90;;;;;;4921715;29;20046;-64
2023/07/21 04:05:44;;;;;;;3.60;1.45;;;13.60;99.90;;;;;;4908528;29;20131;-66
2023/07/21 04:08:10;;;;;;;2.17;1.52;;;13.70;99.90;;;;;;4919333;29;20103;-64
2023/07/21 04:10:40;;;;;;;2.28;1.50;;;13.90;99.90;;;;;;4926504;29;20106;-65
2023/07/21 04:13:06;;;;;;;2.60;1.48;;;14.00;99.90;;;;;;4908226;29;20491;-65
2023/07/21 04:15:33;;;;;;;1.60;1.50;;;14.10;99.90;;;;;;4923666;29;20649;-64
2023/07/21 04:17:58;;;;;;;1.83;1.60;;;14.30;99.90;;;;;;4921386;29;20039;-64
2023/07/21 04:20:24;;;;;;;1.85;1.50;;;14.40;99.90;;;;;;4903970;29;20031;-64
2023/07/21 04:22:51;;;;;;;2.50;1.67;;;14.50;99.90;;;;;;4919115;29;20454;-64
2023/07/21 04:25:18;;;;;;;3.13;1.60;;;14.60;99.90;;;;;;4901672;29;20040;-64
2023/07/21 04:27:50;;;;;;;1.52;1.33;;;14.60;99.90;;;;;;4914437;29;20506;-65
2023/07/21 04:30:21;;;;;;;2.05;1.30;;;14.70;99.90;;;;;;4910424;29;20404;-65
2023/07/21 04:32:47;;;;;;;5.25;1.30;;;14.80;99.90;;;;;;4922875;29;20039;-64
2023/07/21 04:35:16;;;;;;;1.35;1.25;;;14.90;99.90;;;;;;4906226;29;20529;-64
2023/07/21 04:37:44;;;;;;;1.55;1.00;;;15.00;99.90;;;;;;4902461;29;20458;-64
2023/07/21 04:40:11;;;;;;;1.35;1.23;;;15.10;99.90;;;;;;4910253;29;20126;-64
2023/07/21 04:42:39;;;;;;;2.08;1.40;;;15.10;99.90;;;;;;4915221;29;20497;-64
2023/07/21 04:45:11;;;;;;;3.13;1.30;;;15.20;99.90;;;;;;4909455;29;20031;-64
2023/07/21 04:47:41;;;;;;;2.70;1.83;;;15.30;99.90;;;;;;4909029;29;20031;-64
2023/07/21 04:50:13;;;;;;;2.97;2.20;;;15.40;99.90;;;;;;4910143;29;20118;-64
2023/07/21 04:52:38;;;;;;;3.25;1.70;;;15.50;99.90;;;;;;4921245;29;20136;-65
2023/07/21 04:55:05;;;;;;;4.15;1.95;;;15.60;99.90;;;;;;4922392;29;20035;-64
2023/07/21 04:57:32;;;;;;;2.10;1.52;;;15.70;99.90;;;;;;4901853;29;20044;-65
2023/07/21 04:59:59;;;;;;;1.80;1.48;;;15.70;99.90;;;;;;4901594;29;20078;-64
2023/07/21 05:02:28;;;;;;;2.25;1.60;;;15.80;99.90;;;;;;4901994;29;20039;-65
2023/07/21 05:04:54;;;;;;;2.50;1.60;;;15.80;99.90;;;;;;4908078;29;20040;-64
2023/07/21 05:07:20;;;;;;;1.98;1.63;;;15.90;99.90;;;;;;4910062;29;20036;-64
2023/07/21 05:09:48;;;;;;;2.30;1.20;;;16.00;99.90;;;;;;4908402;29;20028;-64
2023/07/21 05:12:15;;;;;;;3.08;1.30;;;16.00;99.90;;;;;;4910001;29;20032;-65
2023/07/21 05:14:52;;;;;;;3.33;1.30;;;16.10;99.90;;;;;;4902336;29;20037;-65
2023/07/21 05:17:36;;;;;;;5.22;1.55;;;16.20;99.90;;;;;;4916508;29;20107;-65
2023/07/21 05:20:21;;;;;;;2.90;1.70;;;16.20;99.90;;;;;;4906654;29;20032;-65
2023/07/21 05:23:05;;;;;;;1.30;1.20;;;16.30;99.90;;;;;;4922165;29;20775;-65
2023/07/21 05:25:42;;;;;;;2.05;1.40;;;16.30;99.90;;;;;;4900531;29;20043;-65
2023/07/21 05:28:09;;;;;;;3.42;1.77;;;16.40;99.90;;;;;;4909458;29;20032;-64
2023/07/21 05:30:41;;;;;;;1.60;1.27;;;16.40;99.90;;;;;;4902405;29;20476;-65
2023/07/21 05:33:07;;;;;;;2.25;1.50;;;16.50;99.90;;;;;;4909003;29;20059;-65
2023/07/21 05:35:33;;;;;;;1.85;1.50;;;16.60;99.90;;;;;;4898472;29;20036;-65
2023/07/21 05:38:09;;;;;;;3.38;1.48;;;16.60;99.90;;;;;;4908458;29;20038;-65
2023/07/21 05:40:35;;;;;;;1.70;1.27;;;16.70;99.90;;;;;;4907171;29;20032;-65
2023/07/21 05:43:02;;;;;;;1.90;1.33;;;16.80;99.90;;;;;;4922343;29;20090;-65
2023/07/21 05:45:29;;;;;;;2.45;1.33;;;16.80;99.90;;;;;;4900865;29;20036;-64
2023/07/21 05:47:55;;;;;;;2.58;1.30;;;16.80;99.90;;;;;;4903572;29;20489;-65
2023/07/21 05:50:23;;;;;;;1.23;1.13;;;16.80;99.90;;;;;;4905146;29;20123;-65
2023/07/21 05:52:53;;;;;;;4.35;1.48;;;16.80;99.90;;;;;;4903310;29;20054;-65
2023/07/21 05:55:24;;;;;;;3.50;1.40;;;16.90;99.90;;;;;;4915608;29;20086;-65
2023/07/21 05:57:50;;;;;;;1.55;1.25;;;17.00;99.90;;;;;;4910999;29;20519;-65
2023/07/21 06:00:15;;;;;;;2.38;1.45;;;17.00;99.90;;;;;;4912754;29;20046;-65
2023/07/21 06:02:49;;;;;;;2.67;0.98;;;17.00;99.90;;;;;;4909120;29;20040;-65
2023/07/21 06:05:14;;;;;;;3.08;1.30;;;17.10;99.90;;;;;;4912830;29;20551;-65
2023/07/21 06:07:58;;;;;;;3.95;1.20;;;17.10;99.90;;;;;;4923603;29;20032;-64
2023/07/21 06:10:38;;;;;;;2.00;1.13;;;17.20;99.90;;;;;;4906859;29;20036;-65
2023/07/21 06:13:23;;;;;;;3.30;1.40;;;17.20;99.90;;;;;;4926041;29;20043;-64
2023/07/21 06:15:55;;;;;;;1.65;1.08;;;17.20;99.90;;;;;;4904241;29;20059;-65
2023/07/21 06:18:26;;;;;;;1.70;1.20;;;17.30;99.90;;;;;;4912181;29;20464;-64
2023/07/21 06:20:52;;;;;;;1.55;1.20;;;17.20;99.90;;;;;;4903231;29;20040;-65
2023/07/21 06:23:20;;;;;;;2.47;1.25;;;17.20;99.90;;;;;;4907615;29;20135;-65
2023/07/21 06:25:47;;;;;;;1.10;1.00;;;17.20;99.90;;;;;;4902532;29;20568;-64
2023/07/21 06:28:15;;;;;;;1.52;1.00;;;17.30;99.90;;;;;;4904017;29;20032;-65
2023/07/21 06:30:41;;;;;;;1.85;1.30;;;17.30;99.90;;;;;;4922855;29;20086;-64
2023/07/21 06:33:11;;;;;;;2.97;1.17;;;17.30;99.90;;;;;;4912358;29;20186;-64
2023/07/21 06:35:50;;;;;;;2.80;1.50;;;17.30;99.90;;;;;;4913913;29;20123;-64
2023/07/21 06:38:22;;;;;;;1.25;0.90;;;17.30;99.90;;;;;;4924281;29;20131;-64
2023/07/21 06:41:14;;;;;;;1.40;1.13;;;17.40;99.90;;;;;;4922763;29;20495;-64
2023/07/21 06:44:06;;;;;;;2.33;1.33;;;17.40;99.90;;;;;;4905396;29;20036;-65
2023/07/21 06:46:54;;;;;;;2.92;1.13;;;17.40;99.90;;;;;;4919603;29;20048;-65
2023/07/21 06:49:38;;;;;;;1.35;1.15;;;17.40;99.90;;;;;;4925464;29;20050;-65
2023/07/21 06:52:13;;;;;;;2.03;1.13;;;17.40;99.90;;;;;;4910145;29;20035;-65
2023/07/21 06:54:39;;;;;;;4.90;1.45;;;17.40;99.90;;;;;;4924687;29;20115;-65
2023/07/21 06:57:05;;;;;;;1.10;1.00;;;17.40;99.90;;;;;;4910629;29;20766;-65
2023/07/21 06:59:32;;;;;;;1.55;1.00;;;17.40;99.90;;;;;;4922269;29;20040;-65
2023/07/21 07:01:58;;;;;;;3.70;0.95;;;17.50;99.90;;;;;;4902939;29;20170;-64
2023/07/21 07:04:25;;;;;;;1.10;0.90;;;17.50;99.90;;;;;;4920058;29;20047;-65
2023/07/21 07:06:53;;;;;;;1.70;1.23;;;17.60;99.90;;;;;;4909773;29;20071;-65
2023/07/21 07:09:18;;;;;;;2.22;1.17;;;17.70;99.90;;;;;;4910171;29;20613;-65
2023/07/21 07:11:44;;;;;;;1.75;1.10;;;17.70;99.90;;;;;;4912786;29;20032;-65
2023/07/21 07:14:13;;;;;;;1.85;1.00;;;17.90;99.90;;;;;;4924890;29;20031;-64
2023/07/21 07:16:39;;;;;;;1.45;1.00;;;17.90;99.80;;;;;;4921662;29;20051;-65
2023/07/21 07:19:06;;;;;;;1.45;1.25;;;18.00;99.90;;;;;;4922897;29;20082;-65
2023/07/21 07:21:32;;;;;;;2.13;1.00;;;18.10;99.90;;;;;;4919203;29;20028;-65
2023/07/21 07:23:58;;;;;;;3.08;1.50;;;18.10;99.90;;;;;;4906986;29;20032;-65
2023/07/21 07:26:24;;;;;;;3.22;1.08;;;18.30;99.70;;;;;;4910164;29;20123;-65
2023/07/21 07:28:50;;;;;;;2.25;1.13;;;18.40;98.70;;;;;;4925374;29;20032;-65
2023/07/21 07:31:15;;;;;;;2.63;0.90;;;18.40;98.80;;;;;;4925211;29;20464;-65
2023/07/21 07:33:42;;;;;;;3.60;1.00;;;18.50;98.50;;;;;;4924000;29;20046;-65
2023/07/21 07:36:08;;;;;;;3.13;1.02;;;18.60;98.20;;;;;;4923367;29;20044;-65
2023/07/21 07:38:34;;;;;;;2.83;1.15;;;18.60;98.30;;;;;;4920778;29;20040;-64
2023/07/21 07:41:03;;;;;;;1.10;0.75;;;18.70;97.90;;;;;;4921048;29;20780;-65
2023/07/21 07:43:29;;;;;;;3.00;1.10;;;18.80;98.10;;;;;;4927456;29;20111;-65
2023/07/21 07:45:57;;;;;;;3.55;1.27;;;18.90;98.20;;;;;;4925499;29;20036;-65
2023/07/21 07:48:23;;;;;;;4.75;0.90;;;19.00;97.70;;;;;;4923125;29;20047;-65
2023/07/21 07:50:51;;;;;;;5.25;1.08;;;19.10;97.70;;;;;;4922258;29;20036;-65
2023/07/21 07:53:17;;;;;;;1.88;0.75;;;19.20;97.00;;;;;;4922463;29;20099;-65
2023/07/21 07:55:44;;;;;;;2.70;0.93;;;19.20;96.20;;;;;;4919372;29;20115;-65
2023/07/21 07:58:10;;;;;;;2.70;0.93;;;19.30;96.00;;;;;;4920798;29;20069;-65
2023/07/21 08:00:38;;;;;;;1.60;0.90;;;19.30;95.10;;;;;;4926810;29;20055;-66
2023/07/21 08:03:05;;;;;;;1.92;0.98;;;19.30;95.20;;;;;;4921281;29;20036;-65
2023/07/21 08:05:41;;;;;;;3.38;1.20;;;19.30;95.30;;;;;;4924584;29;20114;-65
2023/07/21 08:08:08;;;;;;;2.78;0.98;;;19.30;94.80;;;;;;4910117;29;20023;-67
2023/07/21 08:10:34;;;;;;;2.28;1.20;;;19.40;94.40;;;;;;4917934;29;20039;-68
2023/07/21 08:13:04;;;;;;;4.95;1.70;;;19.40;94.80;;;;;;4920378;29;20034;-69
2023/07/21 08:15:30;;;;;;;6.68;3.15;;;19.50;96.10;;;;;;4917399;29;20040;-68
2023/07/21 08:17:55;;;;;;;7.38;2.67;;;19.60;95.40;;;;;;4925100;29;20040;-68
2023/07/21 08:20:21;;;;;;;12.38;5.95;;;19.70;95.20;;;;;;4925562;29;20489;-69
2023/07/21 08:22:51;;;;;;;4.45;2.40;;;19.80;94.50;;;;;;4922963;29;20036;-69
2023/07/21 08:25:17;;;;;;;2.85;1.50;;;20.00;94.70;;;;;;4924077;29;20035;-69
2023/07/21 08:27:43;;;;;;;2.92;1.30;;;20.00;94.10;;;;;;4903275;29;20663;-69
2023/07/21 08:30:10;;;;;;;2.40;1.20;;;20.10;95.30;;;;;;4921082;29;20142;-68
2023/07/21 08:32:36;;;;;;;2.67;1.38;;;20.10;96.20;;;;;;4916136;29;20047;-68
2023/07/21 08:35:03;;;;;;;2.63;1.40;;;20.20;97.00;;;;;;4909573;29;20039;-68
2023/07/21 08:37:30;;;;;;;2.33;1.10;;;20.20;97.30;;;;;;4922949;29;20028;-68
2023/07/21 08:39:56;;;;;;;2.45;0.80;;;20.30;97.50;;;;;;4924654;29;20043;-68
2023/07/21 08:42:24;;;;;;;1.10;0.75;;;20.40;97.70;;;;;;4922856;29;20105;-68
2023/07/21 08:44:52;;;;;;;0.60;0.55;;;20.50;97.60;;;;;;4920582;29;20074;-68
2023/07/21 08:47:18;;;;;;;1.27;0.60;;;20.60;97.70;;;;;;4920886;29;20536;-68
2023/07/21 08:49:45;;;;;;;1.00;0.60;;;20.60;97.00;;;;;;4917970;29;20075;-68
2023/07/21 08:52:11;;;;;;;2.25;0.65;;;20.60;96.90;;;;;;4919728;29;20090;-68
2023/07/21 08:54:37;;;;;;;1.27;0.60;;;20.70;96.50;;;;;;4925648;29;20036;-68
2023/07/21 08:57:03;;;;;;;1.67;0.82;;;20.80;96.70;;;;;;4921730;29;20831;-67
2023/07/21 08:59:28;;;;;;;2.38;1.35;;;20.70;95.70;;;;;;4923236;29;20058;-68
2023/07/21 09:01:54;;;;;;;2.00;1.33;;;20.60;95.50;;;;;;4921444;29;20071;-68
2023/07/21 09:04:22;;;;;;;2.72;1.45;;;20.60;95.50;;;;;;4920317;29;20044;-68
2023/07/21 09:06:58;;;;;;;3.05;1.55;;;20.50;95.40;;;;;;4923404;29;20035;-68
2023/07/21 09:09:26;;;;;;;1.42;0.90;;;20.50;95.90;;;;;;4919603;29;20027;-68
2023/07/21 09:12:11;;;;;;;4.95;2.90;;;20.50;95.30;;;;;;4925038;29;20040;-68
2023/07/21 09:14:39;;;;;;;5.35;2.97;;;20.30;95.70;;;;;;4920855;29;20111;-69
2023/07/21 09:17:06;;;;;;;4.80;2.63;;;20.20;96.00;;;;;;4919908;29;20035;-69
2023/07/21 09:19:40;;;;;;;1.50;1.20;;;20.30;95.80;;;;;;4920611;29;20036;-69
2023/07/21 09:22:07;;;;;;;2.33;1.17;;;20.30;96.30;;;;;;4920703;29;20485;-69
2023/07/21 09:24:34;;;;;;;2.17;1.10;;;20.30;95.60;;;;;;4918539;29;20120;-70
2023/07/21 09:27:19;;;;;;;2.38;0.90;;;20.40;95.50;;;;;;4922574;29;20040;-69
2023/07/21 09:29:46;;;;;;;3.25;0.90;;;20.40;95.70;;;;;;4928178;29;20782;-70
2023/07/21 09:32:16;;;;;;;1.63;1.17;;;20.50;95.40;;;;;;4928644;29;20036;-71
2023/07/21 09:34:57;;;;;;;3.80;1.00;;;20.60;96.50;;;;;;4925431;29;20788;-70
2023/07/21 09:37:27;;;;;;;1.20;0.80;;;20.60;95.10;;;;;;4924950;29;20446;-69
2023/07/21 09:39:58;;;;;;;3.08;0.90;;;20.50;95.80;;;;;;4926428;29;20028;-69
2023/07/21 09:42:26;;;;;;;2.30;0.88;;;20.50;97.10;;;;;;4921824;29;20047;-69
2023/07/21 09:44:54;;;;;;;2.85;0.90;;;20.60;96.50;;;;;;4921149;29;20028;-69
2023/07/21 09:47:20;;;;;;;1.35;0.90;;;20.70;95.30;;;;;;4929536;29;20473;-70
2023/07/21 09:49:48;;;;;;;3.05;0.88;;;20.80;94.90;;;;;;4927094;29;20023;-72
2023/07/21 09:52:16;;;;;;;2.50;1.02;;;20.80;94.80;;;;;;4927008;29;20051;-69
2023/07/21 09:54:53;;;;;;;1.75;0.95;;;20.80;94.80;;;;;;4910909;29;20040;-69
2023/07/21 09:57:22;;;;;;;3.35;0.88;;;20.80;95.00;;;;;;4920416;29;20155;-69
2023/07/21 09:59:50;;;;;;;1.40;0.93;;;21.00;94.30;;;;;;4922906;29;20063;-68
2023/07/21 10:02:16;;;;;;;5.20;0.82;;;21.00;94.40;;;;;;4922320;29;20404;-69
2023/07/21 10:04:46;;;;;;;5.25;1.63;;;21.10;93.60;;;;;;4928376;29;20031;-69
2023/07/21 10:07:12;;;;;;;11.00;5.72;;;21.20;93.80;;;;;;4928069;29;20044;-69
2023/07/21 10:09:39;;;;;;;6.90;3.92;;;21.20;94.50;;;;;;4925677;29;20078;-69
2023/07/21 10:12:16;;;;;;;10.68;6.32;;;21.30;94.60;;;;;;4927569;29;20024;-69
2023/07/21 10:14:44;;;;;;;3.65;1.95;;;21.30;94.20;;;;;;4921991;29;20148;-69
2023/07/21 10:17:11;;;;;;;12.10;6.70;;;21.20;93.90;;;;;;4923489;29;20040;-69
2023/07/21 10:19:44;;;;;;;9.57;5.38;;;21.30;93.60;;;;;;4918831;29;20040;-68
2023/07/21 10:22:14;;;;;;;4.25;2.65;;;21.30;93.80;;;;;;4926709;29;20035;-67
2023/07/21 10:24:47;;;;;;;2.28;1.20;;;21.40;93.30;;;;;;4925028;29;20126;-70
2023/07/21 10:27:23;;;;;;;2.83;1.42;;;21.50;92.50;;;;;;4926220;29;20042;-71
2023/07/21 10:29:56;;;;;;;3.17;1.50;;;21.50;93.70;;;;;;4924000;29;20028;-70
2023/07/21 10:32:24;;;;;;;3.10;0.85;;;21.50;92.10;;;;;;4923574;29;20070;-70
2023/07/21 10:34:52;;;;;;;1.40;1.00;;;21.40;92.50;;;;;;4921402;29;20036;-70
2023/07/21 10:37:18;;;;;;;2.03;1.20;;;21.30;92.30;;;;;;4920360;29;20753;-70
2023/07/21 10:39:54;;;;;;;2.00;1.10;;;21.40;92.60;;;;;;4926463;29;20027;-69
2023/07/21 10:42:19;;;;;;;2.92;1.00;;;21.40;93.10;;;;;;4927293;29;20122;-69
2023/07/21 10:44:47;;;;;;;3.00;0.80;;;21.40;92.20;;;;;;4926160;29;20119;-68
2023/07/21 10:47:16;;;;;;;3.42;1.30;;;21.30;92.10;;;;;;4925109;29;20424;-68
2023/07/21 10:49:42;;;;;;;3.28;1.17;;;21.30;92.70;;;;;;4921550;29;20048;-68
2023/07/21 10:52:09;;;;;;;1.45;1.02;;;21.30;92.10;;;;;;4923005;29;20043;-68
2023/07/21 10:54:38;;;;;;;3.38;1.25;;;21.30;92.80;;;;;;4918593;29;20438;-68
2023/07/21 10:57:05;;;;;;;3.13;0.93;;;21.40;92.80;;;;;;4920746;29;20027;-68
2023/07/21 10:59:35;;;;;;;3.38;0.90;;;21.50;92.20;;;;;;4927563;29;20048;-68
2023/07/21 11:02:04;;;;;;;2.53;1.00;;;21.60;92.80;;;;;;4925753;29;20024;-69
2023/07/21 11:04:30;;;;;;;1.90;1.20;;;21.70;92.70;;;;;;4925016;29;20045;-69
2023/07/21 11:06:58;;;;;;;2.78;1.00;;;21.60;92.90;;;;;;4922761;29;20055;-69
2023/07/21 11:09:25;;;;;;;2.03;1.10;;;21.60;92.80;;;;;;4921953;29;20045;-69
2023/07/21 11:11:53;;;;;;;1.73;1.00;;;21.50;93.70;;;;;;4920355;29;20082;-68
2023/07/21 11:14:24;;;;;;;1.27;0.80;;;21.50;93.90;;;;;;4924777;29;20127;-68
2023/07/21 11:16:52;;;;;;;2.22;1.35;;;21.40;93.90;;;;;;4926666;29;20040;-68
2023/07/21 11:19:19;;;;;;;4.65;2.30;;;21.30;93.70;;;;;;4926330;29;20874;-68
2023/07/21 11:21:46;;;;;;;8.43;3.50;;;21.30;94.20;;;;;;4925386;29;20087;-68
2023/07/21 11:24:23;;;;;;;6.45;3.33;;;21.40;93.90;;;;;;4922508;29;20631;-69
2023/07/21 11:26:49;;;;;;;4.97;2.70;;;21.50;94.70;;;;;;4922572;29;20040;-68
2023/07/21 11:29:16;;;;;;;6.45;2.95;;;21.40;93.80;;;;;;4921091;29;20111;-69
2023/07/21 11:31:43;;;;;;;5.95;3.25;;;21.40;94.30;;;;;;4921849;29;20042;-68
2023/07/21 11:34:22;;;;;;;5.72;1.80;;;21.40;94.80;;;;;;4927005;29;20027;-68
2023/07/21 11:36:51;;;;;;;2.75;1.50;;;21.40;95.10;;;;;;4925120;29;20036;-68
2023/07/21 11:39:22;;;;;;;2.88;1.60;;;21.50;94.40;;;;;;4924483;29;20040;-68
2023/07/21 11:41:48;;;;;;;2.50;1.88;;;21.40;94.20;;;;;;4921905;29;20044;-68
2023/07/21 11:44:21;;;;;;;4.43;2.80;;;21.50;94.00;;;;;;4921996;29;20044;-68
2023/07/21 11:47:05;;;;;;;3.88;2.35;;;21.50;92.80;;;;;;4919111;29;20032;-68
2023/07/21 11:49:36;;;;;;;4.60;2.05;;;21.60;92.50;;;;;;4919995;29;20082;-68
2023/07/21 11:52:03;;;;;;;2.90;1.83;;;21.60;92.10;;;;;;4926478;29;20657;-68
2023/07/21 11:54:37;;;;;;;1.98;1.40;;;21.60;92.00;;;;;;4924001;29;20035;-68
2023/07/21 11:57:03;;;;;;;2.67;1.10;;;21.60;92.40;;;;;;4921896;29;20031;-67
2023/07/21 11:59:28;;;;;;;2.30;1.48;;;21.60;93.70;;;;;;4922614;29;20042;-68
2023/07/21 12:01:55;;;;;;;1.50;1.20;;;21.60;94.00;;;;;;4921129;29;20040;-73
2023/07/21 12:04:22;;;;;;;2.05;1.30;;;21.60;93.50;;;;;;4921180;29;20071;-67
2023/07/21 12:06:49;;;;;;;2.08;1.10;;;21.60;92.70;;;;;;4918341;29;20043;-68
2023/07/21 12:09:23;;;;;;;2.85;1.30;;;21.70;93.40;;;;;;5110313;27;20403;-67
2023/07/21 12:11:49;;;;;;;1.55;1.10;;;21.80;92.40;;;;;;5111324;28;20035;-67
2023/07/21 12:14:15;;;;;;;2.90;1.40;;;21.80;91.80;;;;;;5112825;28;20043;-67
2023/07/21 12:16:41;;;;;;;0.98;0.88;;;21.80;92.30;;;;;;5110690;28;20028;-67
2023/07/21 12:19:07;;;;;;;2.38;1.20;;;21.80;92.80;;;;;;5112995;28;20046;-66
2023/07/21 12:21:34;;;;;;;1.50;1.13;;;21.90;93.30;;;;;;5111183;28;20559;-67
2023/07/21 12:24:00;;;;;;;3.78;1.35;;;21.90;93.90;;;;;;5109231;28;20440;-67
2023/07/21 12:26:26;;;;;;;1.27;0.93;;;21.90;93.60;;;;;;5113248;28;20038;-67
2023/07/21 12:28:52;;;;;;;1.23;0.90;;;22.00;93.10;;;;;;5110208;28;20044;-67
2023/07/21 12:31:18;;;;;;;2.72;1.05;;;22.10;94.00;;;;;;5112815;28;20100;-67
2023/07/21 12:33:44;;;;;;;1.90;1.20;;;22.10;94.00;;;;;;5110308;28;20036;-67
2023/07/21 12:36:14;;;;;;;1.38;0.98;;;22.10;91.90;;;;;;5112912;28;20057;-67
2023/07/21 12:38:41;;;;;;;4.43;1.25;;;22.10;92.60;;;;;;5108636;28;20065;-67
2023/07/21 12:41:07;;;;;;;2.35;1.00;;;22.10;91.90;;;;;;5105842;28;20035;-67
2023/07/21 12:43:33;;;;;;;2.65;1.17;;;22.10;91.50;;;;;;5105573;28;20473;-67
2023/07/21 12:46:03;;;;;;;1.77;0.90;;;22.30;91.90;;;;;;5108777;28;20020;-67
2023/07/21 12:48:30;;;;;;;1.40;0.95;;;22.20;91.50;;;;;;5113012;28;20032;-67
2023/07/21 12:51:00;;;;;;;1.70;1.17;;;22.30;91.40;;;;;;5110458;28;20035;-67
2023/07/21 12:53:27;;;;;;;2.08;1.30;;;22.40;91.70;;;;;;5111894;28;20023;-66